Time;durP1;ratioP1;P1;durP2;ratioP2;P2;SDS_P1;SDS_P2;PMS_P1;PMS_P2;Temp;Humidity;BMP_temperature;BMP_pressure;BME280_temperature;BME280_humidity;BME280_pressure;Samples;Min_cycle;Max_cycle;Signal;HPM_P1;HPM_P2
2024/03/01 00:02:05;;;;;;;6.20;5.60;;;;;;;18.74;51.12;96503.97;5014556;28;20276;-25
2024/03/01 00:04:32;;;;;;;6.13;5.53;;;;;;;18.73;50.97;96497.16;5014329;28;20214;-25
2024/03/01 00:06:58;;;;;;;5.90;5.30;;;;;;;18.73;51.35;96498.84;5014352;28;20198;-26
2024/03/01 00:09:25;;;;;;;6.30;5.67;;;;;;;18.72;51.12;96497.13;5014331;28;20226;-25
2024/03/01 00:11:52;;;;;;;5.67;5.10;;;;;;;18.74;51.03;96495.50;5011705;28;20249;-25
2024/03/01 00:14:18;;;;;;;6.53;5.83;;;;;;;18.72;50.78;96490.38;5014202;28;20739;-25
2024/03/01 00:16:45;;;;;;;5.83;5.23;;;;;;;18.73;51.33;96498.84;5013971;28;20214;-33
2024/03/01 00:19:11;;;;;;;5.70;5.20;;;;;;;18.74;51.28;96498.03;5014213;28;20300;-26
2024/03/01 00:21:38;;;;;;;5.60;5.10;;;;;;;18.75;51.06;96502.28;5013796;28;20233;-25
2024/03/01 00:24:05;;;;;;;5.93;5.33;;;;;;;18.74;51.22;96498.88;5014187;28;20275;-25
2024/03/01 00:26:32;;;;;;;5.90;5.30;;;;;;;18.75;51.08;96492.09;5014524;28;20276;-26
2024/03/01 00:28:59;;;;;;;6.00;5.40;;;;;;;18.74;51.41;96492.94;5014200;28;20245;-25
2024/03/01 00:31:25;;;;;;;6.00;5.40;;;;;;;18.70;51.08;96481.81;5013990;28;20252;-26
2024/03/01 00:33:52;;;;;;;6.13;5.43;;;;;;;18.71;51.39;96486.06;5013740;28;20352;-25
2024/03/01 00:36:19;;;;;;;5.97;5.37;;;;;;;18.71;51.42;96485.22;5014065;28;20210;-25
2024/03/01 00:38:45;;;;;;;5.87;5.27;;;;;;;18.73;51.37;96494.63;5013583;28;20260;-28
2024/03/01 00:41:12;;;;;;;6.50;5.57;;;;;;;18.74;51.18;96505.66;5013388;28;20233;-25
2024/03/01 00:43:39;;;;;;;6.83;5.60;;;;;;;18.75;51.24;96497.19;5013782;28;20293;-25
2024/03/01 00:46:05;;;;;;;5.57;5.07;;;;;;;18.72;51.25;96487.81;5013511;28;20293;-25
2024/03/01 00:48:34;;;;;;;6.50;5.67;;;;;;;18.74;51.34;96498.03;5013463;28;20222;-26
2024/03/01 00:51:01;;;;;;;5.80;5.20;;;;;;;18.71;51.34;96495.41;5013627;28;20222;-25
2024/03/01 00:53:28;;;;;;;6.40;5.77;;;;;;;18.72;50.96;96492.91;5013763;28;20212;-27
2024/03/01 00:55:55;;;;;;;5.30;4.77;;;;;;;18.74;51.23;96498.03;5012653;28;20202;-25
2024/03/01 00:58:21;;;;;;;5.63;5.13;;;;;;;18.73;51.45;96486.97;5013676;28;20201;-26
2024/03/01 01:00:48;;;;;;;6.57;5.83;;;;;;;18.75;51.14;96479.38;5013281;28;20257;-25
2024/03/01 01:03:15;;;;;;;6.83;5.90;;;;;;;18.74;51.65;96483.59;5013634;28;20206;-26
2024/03/01 01:05:41;;;;;;;6.43;5.83;;;;;;;18.73;51.20;96486.97;5013358;28;20264;-25
2024/03/01 01:08:08;;;;;;;6.10;5.50;;;;;;;18.73;51.29;96476.81;5012788;28;20240;-25
2024/03/01 01:10:35;;;;;;;6.60;5.67;;;;;;;18.71;51.44;96480.16;5010109;28;20676;-25
2024/03/01 01:13:01;;;;;;;5.90;5.20;;;;;;;18.74;51.32;96472.59;5011984;28;20273;-25
2024/03/01 01:15:28;;;;;;;5.63;5.13;;;;;;;18.73;51.22;96470.84;5013576;28;20199;-25
2024/03/01 01:17:55;;;;;;;5.73;5.23;;;;;;;18.73;50.91;96471.72;5013460;28;20199;-25
2024/03/01 01:20:21;;;;;;;6.37;5.70;;;;;;;18.73;51.24;96466.63;5013265;28;20222;-25
2024/03/01 01:22:48;;;;;;;6.33;5.73;;;;;;;18.73;51.00;96464.06;5013436;28;20244;-25
2024/03/01 01:25:15;;;;;;;6.33;5.73;;;;;;;18.74;51.18;96464.94;5013018;28;20211;-25
2024/03/01 01:27:42;;;;;;;5.67;5.13;;;;;;;18.72;51.25;96462.38;5013398;28;20676;-25
2024/03/01 01:30:09;;;;;;;5.83;5.23;;;;;;;18.73;51.16;96464.06;5013192;28;20230;-25
2024/03/01 01:32:36;;;;;;;5.43;4.93;;;;;;;18.72;51.07;96457.28;5012408;28;20214;-26
2024/03/01 01:35:03;;;;;;;6.90;6.20;;;;;;;18.72;51.35;96475.09;5012878;28;20201;-25
2024/03/01 01:37:29;;;;;;;6.07;5.47;;;;;;;18.73;51.19;96463.22;5013250;28;20268;-25
2024/03/01 01:39:56;;;;;;;5.57;5.07;;;;;;;18.73;51.18;96461.53;5013009;28;20220;-25
2024/03/01 01:42:23;;;;;;;6.10;5.50;;;;;;;18.74;50.94;96454.78;5013315;28;20206;-25
2024/03/01 01:44:49;;;;;;;6.23;5.63;;;;;;;18.73;50.87;96441.19;5013098;28;20572;-25
2024/03/01 01:47:16;;;;;;;5.67;5.13;;;;;;;18.73;51.10;96446.25;5012799;28;20213;-25
2024/03/01 01:49:43;;;;;;;6.20;5.60;;;;;;;18.72;51.34;96443.69;5011664;28;20254;-25
2024/03/01 01:52:09;;;;;;;6.70;6.00;;;;;;;18.71;50.94;96437.72;5011634;28;20198;-25
2024/03/01 01:54:36;;;;;;;6.60;5.97;;;;;;;18.71;51.29;96430.09;5012220;28;20631;-31
2024/03/01 01:57:04;;;;;;;6.47;5.87;;;;;;;18.69;51.26;96423.25;5011452;28;20661;-29
2024/03/01 01:59:30;;;;;;;6.83;5.90;;;;;;;18.68;51.10;96424.94;5005122;28;20257;-25
2024/03/01 02:01:57;;;;;;;5.93;5.30;;;;;;;18.72;51.18;96430.97;5010884;28;20858;-25
2024/03/01 02:04:24;;;;;;;5.93;5.33;;;;;;;18.71;51.07;96426.72;5010513;28;20202;-25
2024/03/01 02:06:51;;;;;;;6.47;5.83;;;;;;;18.72;51.21;96423.31;5011747;28;20202;-25
2024/03/01 02:09:18;;;;;;;5.60;5.10;;;;;;;18.69;51.09;96425.78;5011693;28;20301;-25
2024/03/01 02:11:45;;;;;;;5.83;5.23;;;;;;;18.70;51.08;96424.97;5011896;28;20219;-25
2024/03/01 02:14:12;;;;;;;5.70;5.20;;;;;;;18.72;51.17;96423.31;5011045;28;20260;-25
2024/03/01 02:16:38;;;;;;;6.50;5.90;;;;;;;18.72;51.47;96416.56;5012607;28;20241;-25
2024/03/01 02:19:07;;;;;;;6.30;5.70;;;;;;;18.72;51.17;96418.22;5008218;28;20206;-25
2024/03/01 02:21:35;;;;;;;6.33;5.73;;;;;;;18.72;51.33;96405.50;5023425;28;20213;-25
2024/03/01 02:24:03;;;;;;;6.30;5.70;;;;;;;18.71;51.14;96398.72;5012403;28;20199;-25
2024/03/01 02:26:31;;;;;;;6.10;5.53;;;;;;;18.72;51.24;96392.78;5019791;28;20248;-25
2024/03/01 02:28:58;;;;;;;5.90;5.30;;;;;;;18.72;51.43;96392.78;5011468;28;20700;-25
2024/03/01 02:31:24;;;;;;;6.73;5.83;;;;;;;18.72;51.01;96391.13;5013689;28;20202;-26
2024/03/01 02:33:51;;;;;;;7.27;5.80;;;;;;;18.71;51.17;96379.19;5012157;28;20826;-27
2024/03/01 02:36:18;;;;;;;6.10;5.50;;;;;;;18.70;51.10;96380.03;5012177;28;20225;-25
2024/03/01 02:38:44;;;;;;;5.80;5.20;;;;;;;18.71;51.09;96380.91;5011809;28;20202;-26
2024/03/01 02:41:11;;;;;;;6.30;5.70;;;;;;;18.72;51.24;96377.53;5012290;28;20221;-25
2024/03/01 02:43:38;;;;;;;6.20;5.60;;;;;;;18.71;51.31;96373.25;5008197;28;20234;-25
2024/03/01 02:46:05;;;;;;;6.17;5.57;;;;;;;18.72;51.32;96370.75;5010962;28;20240;-25
2024/03/01 02:48:31;;;;;;;5.73;5.20;;;;;;;18.71;51.53;96379.19;5011817;28;20510;-25
2024/03/01 02:50:58;;;;;;;5.80;5.20;;;;;;;18.71;51.56;96373.25;5011967;28;20229;-25
2024/03/01 02:53:24;;;;;;;6.67;5.93;;;;;;;18.70;51.21;96363.88;5011774;28;20289;-25
2024/03/01 02:55:51;;;;;;;6.67;5.40;;;;;;;18.71;50.74;96373.25;5011537;28;20198;-26
2024/03/01 02:58:18;;;;;;;5.57;5.07;;;;;;;18.71;51.33;96375.81;5011207;28;20198;-26
2024/03/01 03:00:44;;;;;;;7.30;5.53;;;;;;;18.72;51.19;96375.84;5011628;28;20221;-25
2024/03/01 03:03:11;;;;;;;6.30;5.57;;;;;;;18.73;51.14;96381.78;5011491;28;20684;-25
2024/03/01 03:05:37;;;;;;;6.27;5.67;;;;;;;18.72;51.58;96390.25;5012345;28;20238;-27
2024/03/01 03:08:07;;;;;;;5.97;5.37;;;;;;;18.72;51.28;96391.13;5011790;28;20210;-25
2024/03/01 03:10:33;;;;;;;5.80;5.30;;;;;;;18.71;51.25;96409.72;5011826;28;20225;-25
2024/03/01 03:13:02;;;;;;;6.03;5.47;;;;;;;18.72;51.58;96416.56;5011364;28;20743;-25
2024/03/01 03:15:28;;;;;;;6.50;5.90;;;;;;;18.71;51.41;96422.44;5012106;28;20198;-25
2024/03/01 03:17:55;;;;;;;5.87;5.27;;;;;;;18.71;50.94;96424.16;5011977;28;20202;-26
2024/03/01 03:20:22;;;;;;;5.73;5.23;;;;;;;18.72;51.42;96428.41;5011210;28;20222;-25
2024/03/01 03:22:48;;;;;;;6.10;5.50;;;;;;;18.71;51.59;96424.16;5011412;28;20209;-25
2024/03/01 03:25:15;;;;;;;5.70;5.20;;;;;;;18.73;51.14;96425.03;5011169;28;20229;-25
2024/03/01 03:27:42;;;;;;;5.87;5.30;;;;;;;18.71;51.22;96429.25;5012013;28;20202;-26
2024/03/01 03:30:10;;;;;;;5.67;5.10;;;;;;;18.72;51.21;96430.97;5011344;28;20237;-25
2024/03/01 03:32:36;;;;;;;6.00;5.50;;;;;;;18.72;50.96;96423.31;5011459;28;20233;-26
2024/03/01 03:35:04;;;;;;;5.37;4.87;;;;;;;18.72;51.15;96428.41;5011354;28;20583;-25
2024/03/01 03:37:31;;;;;;;6.30;5.63;;;;;;;18.66;51.45;96413.88;5009407;28;20583;-25
2024/03/01 03:39:58;;;;;;;6.20;5.60;;;;;;;18.73;51.29;96432.66;5011361;28;20280;-25
2024/03/01 03:42:25;;;;;;;5.87;5.33;;;;;;;18.72;51.25;96431.81;5010041;28;20203;-25
2024/03/01 03:44:52;;;;;;;6.33;5.70;;;;;;;18.71;50.97;96437.72;5011018;28;20202;-25
2024/03/01 03:47:19;;;;;;;6.17;5.57;;;;;;;18.71;51.07;96450.44;5012965;28;20237;-25
2024/03/01 03:49:48;;;;;;;5.70;5.20;;;;;;;18.68;51.17;96450.38;5010832;28;20253;-25
2024/03/01 03:52:15;;;;;;;5.73;5.23;;;;;;;18.71;51.09;96458.09;5011208;28;20199;-25
2024/03/01 03:54:42;;;;;;;6.03;5.43;;;;;;;18.72;51.32;96470.00;5011334;28;20281;-25
2024/03/01 03:57:09;;;;;;;5.90;5.40;;;;;;;18.71;51.31;96480.16;5011369;28;20210;-25
2024/03/01 03:59:35;;;;;;;6.10;5.50;;;;;;;18.72;51.22;96492.03;5011850;28;20246;-25
2024/03/01 04:02:02;;;;;;;6.13;5.53;;;;;;;18.73;51.11;96493.75;5014148;28;20234;-25
2024/03/01 04:04:29;;;;;;;5.67;5.17;;;;;;;18.71;51.32;96488.63;5012089;28;20285;-25
2024/03/01 04:06:57;;;;;;;5.30;4.90;;;;;;;18.70;51.17;96481.81;5014088;28;20198;-27
2024/03/01 04:09:24;;;;;;;6.43;5.83;;;;;;;18.71;51.25;96498.78;5014128;28;20222;-25
2024/03/01 04:11:51;;;;;;;5.60;5.10;;;;;;;18.72;50.93;96499.66;5015065;28;20201;-25
2024/03/01 04:14:17;;;;;;;6.10;5.40;;;;;;;18.70;51.60;96504.72;5014025;28;20209;-25
2024/03/01 04:16:44;;;;;;;5.90;5.30;;;;;;;18.71;51.31;96514.06;5014420;28;20238;-26
2024/03/01 04:19:11;;;;;;;5.97;5.47;;;;;;;18.73;50.83;96514.09;5013738;28;20253;-25
2024/03/01 04:21:37;;;;;;;6.20;5.60;;;;;;;18.71;51.23;96508.13;5014204;28;20198;-25
2024/03/01 04:24:08;;;;;;;5.97;5.40;;;;;;;18.71;50.95;96505.59;5013565;28;20788;-25
2024/03/01 04:26:35;;;;;;;5.70;5.13;;;;;;;18.71;51.32;96506.44;5014434;28;20687;-30
2024/03/01 04:29:03;;;;;;;5.67;5.17;;;;;;;18.70;51.26;96503.84;5013690;28;20194;-25
2024/03/01 04:31:29;;;;;;;6.30;5.70;;;;;;;18.70;51.19;96494.53;5013653;28;20194;-26
2024/03/01 04:33:56;;;;;;;5.90;5.40;;;;;;;18.70;50.98;96484.38;5014144;28;20622;-25
2024/03/01 04:36:23;;;;;;;5.70;5.20;;;;;;;18.70;51.12;96489.44;5013556;28;20226;-25
2024/03/01 04:38:49;;;;;;;6.00;5.40;;;;;;;18.70;51.14;96481.81;5013121;28;20237;-25
2024/03/01 04:41:16;;;;;;;5.47;4.97;;;;;;;18.69;51.02;96482.66;5006777;28;20599;-25
2024/03/01 04:43:43;;;;;;;5.93;5.43;;;;;;;18.71;51.08;96495.41;5010039;28;20206;-25
2024/03/01 04:46:09;;;;;;;5.53;5.03;;;;;;;18.70;51.04;96483.50;5013352;28;20210;-31
2024/03/01 04:48:36;;;;;;;5.60;4.80;;;;;;;18.70;50.99;96480.94;5014114;28;20217;-25
2024/03/01 04:51:09;;;;;;;5.70;5.20;;;;;;;18.69;51.26;96476.69;5013408;28;20276;-25
2024/03/01 04:53:40;;;;;;;5.43;4.93;;;;;;;18.68;51.39;96474.97;5009230;28;20198;-25
2024/03/01 04:56:08;;;;;;;6.23;5.63;;;;;;;18.72;51.05;96481.84;5013422;28;20203;-25
2024/03/01 04:58:35;;;;;;;6.23;5.63;;;;;;;18.71;51.00;96472.50;5014262;28;20202;-25
2024/03/01 05:01:02;;;;;;;5.87;5.37;;;;;;;18.71;50.92;96472.50;5011578;28;20258;-26
2024/03/01 05:03:29;;;;;;;6.00;5.40;;;;;;;18.70;51.09;96478.41;5012373;28;20198;-25
2024/03/01 05:05:56;;;;;;;5.87;5.27;;;;;;;18.70;51.29;96476.72;5008047;28;20635;-28
2024/03/01 05:08:23;;;;;;;5.80;5.30;;;;;;;18.70;51.21;96470.78;5008145;28;20285;-25
2024/03/01 05:10:50;;;;;;;5.70;5.10;;;;;;;18.70;51.35;96480.94;5011234;28;20313;-25
2024/03/01 05:13:18;;;;;;;5.77;5.27;;;;;;;18.69;51.05;96485.19;5013661;28;20202;-26
2024/03/01 05:15:46;;;;;;;6.23;5.63;;;;;;;18.70;51.21;96484.38;5014758;28;20198;-28
2024/03/01 05:18:12;;;;;;;5.57;5.07;;;;;;;18.70;51.21;96486.03;5014641;28;20198;-25
2024/03/01 05:20:39;;;;;;;5.23;4.80;;;;;;;18.70;51.27;96488.59;5012178;28;20222;-26
2024/03/01 05:23:05;;;;;;;6.90;4.87;;;;;;;18.72;50.84;96490.38;5013687;28;20614;-25
2024/03/01 05:25:32;;;;;;;6.03;5.43;;;;;;;18.71;50.00;96492.88;5013686;28;20261;-25
2024/03/01 05:27:59;;;;;;;7.50;5.30;;;;;;;18.71;50.19;96490.31;5013557;28;20198;-25
2024/03/01 05:30:26;;;;;;;6.30;4.97;;;;;;;18.70;50.52;96481.81;5011198;28;20220;-25
2024/03/01 05:33:12;;;;;;;7.50;5.23;;;;;;;18.71;50.52;96488.63;5012072;28;20270;-25
2024/03/01 05:35:39;;;;;;;7.33;6.63;;;;;;;18.68;50.04;96485.16;5012155;28;20201;-25
2024/03/01 05:38:06;;;;;;;12.43;10.40;;;;;;;18.70;48.20;96496.22;5013357;28;20217;-25
2024/03/01 05:40:33;;;;;;;16.23;13.20;;;;;;;18.70;46.70;96498.75;5012434;28;20214;-29
2024/03/01 05:43:11;;;;;;;20.27;15.07;;;;;;;18.67;45.54;96502.09;5012954;28;20293;-25
2024/03/01 05:45:39;;;;;;;18.23;15.87;;;;;;;18.65;45.04;96497.81;5013498;28;20205;-28
2024/03/01 05:48:10;;;;;;;20.57;16.37;;;;;;;18.60;44.47;96484.97;5012873;28;20194;-27
2024/03/01 05:50:38;;;;;;;21.70;17.93;;;;;;;18.67;44.16;96494.47;5012122;28;20229;-25
2024/03/01 05:53:04;;;;;;;25.33;19.73;;;;;;;18.67;43.49;96496.16;5013098;28;20252;-26
2024/03/01 05:55:35;;;;;;;24.83;19.50;;;;;;;18.64;42.00;96490.97;5013102;28;20313;-28
2024/03/01 05:58:02;;;;;;;22.90;18.90;;;;;;;18.60;42.88;96494.28;5012466;28;20677;-25
2024/03/01 06:00:29;;;;;;;25.40;19.00;;;;;;;18.63;43.52;96497.78;5010351;28;20234;-27
2024/03/01 06:02:55;;;;;;;24.50;18.17;;;;;;;18.65;44.09;96515.63;5012552;28;20198;-25
2024/03/01 06:05:24;;;;;;;22.90;18.43;;;;;;;18.65;45.14;96519.00;5012408;28;20269;-25
2024/03/01 06:07:51;;;;;;;24.27;18.33;;;;;;;18.66;45.72;96520.75;5012235;28;20206;-26
2024/03/01 06:10:17;;;;;;;25.20;18.67;;;;;;;18.66;45.33;96520.75;5012050;28;20246;-25
2024/03/01 06:12:44;;;;;;;21.67;17.50;;;;;;;18.69;45.75;96525.91;5015869;28;20198;-25
2024/03/01 06:15:11;;;;;;;21.73;16.63;;;;;;;18.70;46.26;96535.25;5015734;28;20210;-25
2024/03/01 06:17:37;;;;;;;21.47;16.70;;;;;;;18.72;46.75;96540.38;5012563;28;20276;-29
2024/03/01 06:20:05;;;;;;;19.97;15.43;;;;;;;18.65;46.98;96531.72;5012195;28;20222;-25
2024/03/01 06:22:31;;;;;;;17.33;15.07;;;;;;;18.75;47.16;96548.09;5012256;28;20212;-26
2024/03/01 06:24:58;;;;;;;17.40;14.53;;;;;;;18.77;47.43;96546.47;5012520;28;20202;-25
2024/03/01 06:27:25;;;;;;;19.13;14.63;;;;;;;18.71;47.50;96524.25;5012672;28;20225;-25
2024/03/01 06:29:51;;;;;;;18.27;14.33;;;;;;;18.78;47.76;96541.41;5012030;28;20227;-25
2024/03/01 06:32:18;;;;;;;16.83;13.87;;;;;;;18.79;47.75;96540.56;5012516;28;20247;-28
2024/03/01 06:34:47;;;;;;;16.67;13.47;;;;;;;18.81;47.92;96545.69;5012060;28;20260;-26
2024/03/01 06:37:13;;;;;;;16.30;13.60;;;;;;;18.82;47.85;96547.41;5012423;28;20276;-26
2024/03/01 06:39:41;;;;;;;17.50;14.43;;;;;;;18.82;47.38;96550.81;5017470;28;20724;-27
2024/03/01 06:42:07;;;;;;;20.40;16.53;;;;;;;18.82;46.56;96558.47;5011974;28;20206;-25
2024/03/01 06:44:34;;;;;;;20.80;16.33;;;;;;;18.85;46.65;96562.75;5009074;28;20240;-26
2024/03/01 06:47:00;;;;;;;27.13;19.30;;;;;;;18.79;43.87;96553.31;5011934;28;20661;-27
2024/03/01 06:49:31;;;;;;;26.50;19.73;;;;;;;18.79;44.39;96557.53;5010879;28;20218;-25
2024/03/01 06:51:58;;;;;;;21.33;18.07;;;;;;;18.79;45.29;96552.44;5011273;28;20240;-26
2024/03/01 06:54:24;;;;;;;21.07;17.83;;;;;;;18.73;45.65;96542.09;5011715;28;20580;-25
2024/03/01 06:56:51;;;;;;;20.77;17.50;;;;;;;18.80;45.84;96551.63;5011591;28;20249;-26
2024/03/01 06:59:17;;;;;;;19.77;16.17;;;;;;;18.81;46.45;96555.88;5011790;28;20284;-25
2024/03/01 07:01:44;;;;;;;19.63;17.13;;;;;;;18.83;47.12;96559.34;5011347;28;20673;-25
2024/03/01 07:04:11;;;;;;;18.20;15.50;;;;;;;18.86;47.25;96555.16;5011166;28;20202;-25
2024/03/01 07:06:37;;;;;;;20.80;14.67;;;;;;;18.90;47.65;96559.53;5012179;28;20213;-29
2024/03/01 07:09:04;;;;;;;18.57;15.47;;;;;;;18.92;47.22;96554.47;5012238;28;20217;-25
2024/03/01 07:11:31;;;;;;;19.10;14.33;;;;;;;18.96;47.32;96561.34;5012533;28;20221;-25
2024/03/01 07:13:58;;;;;;;17.53;14.70;;;;;;;18.98;47.61;96552.06;5011849;28;20198;-25
2024/03/01 07:16:25;;;;;;;18.07;13.93;;;;;;;19.00;47.43;96545.31;5011718;28;20206;-25
2024/03/01 07:18:51;;;;;;;16.43;14.07;;;;;;;19.00;47.36;96545.31;5011226;28;20198;-25
2024/03/01 07:21:18;;;;;;;15.47;13.30;;;;;;;19.04;47.34;96560.69;5011584;28;20653;-25
2024/03/01 07:23:45;;;;;;;15.97;12.93;;;;;;;19.06;47.54;96561.59;5011637;28;20252;-25
2024/03/01 07:26:11;;;;;;;14.93;13.33;;;;;;;19.08;47.38;96559.97;5011712;28;20691;-25
2024/03/01 07:28:38;;;;;;;15.37;13.73;;;;;;;19.08;47.53;96554.88;5009246;28;20238;-25
2024/03/01 07:31:05;;;;;;;16.50;13.57;;;;;;;19.11;47.62;96549.84;5011554;28;20226;-25
2024/03/01 07:33:32;;;;;;;15.70;12.97;;;;;;;19.13;47.14;96557.53;5012536;28;20206;-25
2024/03/01 07:35:58;;;;;;;14.37;12.13;;;;;;;19.15;46.98;96553.31;5015269;28;20285;-27
2024/03/01 07:38:25;;;;;;;16.67;13.07;;;;;;;19.10;47.43;96542.19;5015526;28;20577;-25
2024/03/01 07:40:52;;;;;;;15.07;12.87;;;;;;;19.14;47.54;96539.72;5015037;28;20249;-25
2024/03/01 07:43:19;;;;;;;12.93;11.63;;;;;;;19.18;47.83;96543.19;5015097;28;20617;-25
2024/03/01 07:45:45;;;;;;;13.97;12.40;;;;;;;19.19;47.60;96547.47;5016670;28;20205;-26
2024/03/01 07:48:12;;;;;;;15.33;12.33;;;;;;;19.20;47.58;96551.72;5015076;28;20238;-27
2024/03/01 07:50:38;;;;;;;14.50;12.53;;;;;;;19.20;47.61;96556.81;5015085;28;20229;-25
2024/03/01 07:53:05;;;;;;;14.00;12.23;;;;;;;19.21;47.72;96551.78;5015299;28;20260;-30
2024/03/01 07:55:32;;;;;;;14.93;12.33;;;;;;;19.21;47.64;96561.09;5015239;28;20202;-26
2024/03/01 07:58:03;;;;;;;12.97;11.20;;;;;;;19.22;47.93;96555.19;5015750;28;20194;-25
2024/03/01 08:00:30;;;;;;;13.03;11.17;;;;;;;19.23;48.02;96564.53;5014694;28;20280;-25
2024/03/01 08:03:07;;;;;;;14.23;11.27;;;;;;;19.24;47.79;96563.69;5015598;28;20289;-25
2024/03/01 08:05:35;;;;;;;14.60;11.10;;;;;;;19.25;47.84;96573.09;5014121;28;20206;-26
2024/03/01 08:08:02;;;;;;;13.23;11.13;;;;;;;19.25;47.75;96576.50;5014954;28;20199;-25
2024/03/01 08:10:31;;;;;;;12.30;10.63;;;;;;;19.24;47.69;96568.78;5014777;28;20666;-25
2024/03/01 08:12:58;;;;;;;11.43;10.23;;;;;;;19.24;48.29;96564.56;5012863;28;20210;-26
2024/03/01 08:15:28;;;;;;;12.57;10.70;;;;;;;19.28;47.84;96570.66;5014922;28;20202;-26
2024/03/01 08:17:55;;;;;;;10.90;9.60;;;;;;;19.29;47.95;96569.81;5014767;28;20240;-25
2024/03/01 08:20:41;;;;;;;12.20;10.30;;;;;;;19.30;47.90;96585.13;5014173;28;20811;-25
2024/03/01 08:23:08;;;;;;;13.27;10.77;;;;;;;19.30;48.04;96569.84;5013841;28;20230;-25
2024/03/01 08:25:35;;;;;;;12.93;10.53;;;;;;;19.30;47.95;96574.94;4997185;28;20203;-25
2024/03/01 08:28:02;;;;;;;11.03;9.90;;;;;;;19.29;47.85;96563.03;5014798;28;20198;-25
2024/03/01 08:30:45;;;;;;;11.30;10.10;;;;;;;19.29;47.92;96568.13;5014363;28;20707;-25
2024/03/01 08:33:15;;;;;;;11.93;10.30;;;;;;;19.33;47.86;96575.00;5013653;28;20237;-25
2024/03/01 08:35:42;;;;;;;11.27;9.23;;;;;;;19.31;47.92;96570.72;5014070;28;20199;-25
2024/03/01 08:38:39;;;;;;;10.73;9.63;;;;;;;19.33;47.86;96576.72;5012752;28;20618;-25
2024/03/01 08:41:08;;;;;;;13.10;10.17;;;;;;;19.33;47.89;96579.25;5013882;28;20576;-25
2024/03/01 08:43:35;;;;;;;10.70;9.33;;;;;;;19.34;47.85;96580.97;5014224;28;20202;-25
2024/03/01 08:46:02;;;;;;;11.87;9.50;;;;;;;19.35;47.96;96564.84;5014097;28;20206;-26
2024/03/01 08:48:32;;;;;;;11.37;9.40;;;;;;;19.36;48.03;96558.94;5025418;28;20624;-25
2024/03/01 08:51:00;;;;;;;13.80;9.13;;;;;;;19.35;47.99;96564.84;5013354;28;20762;-25
2024/03/01 08:53:56;;;;;;;11.57;9.67;;;;;;;19.37;48.05;96561.53;5013790;28;20276;-25
2024/03/01 08:56:33;;;;;;;14.53;12.43;;;;;;;19.37;48.13;96566.63;5011372;28;20225;-25
2024/03/01 08:59:00;;;;;;;13.97;12.47;;;;;;;19.37;47.93;96566.63;5006861;28;20210;-25
2024/03/01 09:01:47;;;;;;;16.50;12.40;;;;;;;19.37;49.08;96561.53;5013264;28;20615;-26
2024/03/01 09:04:28;;;;;;;19.90;12.27;;;;;;;19.39;50.99;96576.84;5009650;28;20252;-25
2024/03/01 09:07:05;;;;;;;14.93;12.40;;;;;;;19.40;52.55;96581.97;4990344;28;20198;-25
2024/03/01 09:09:34;;;;;;;12.80;10.60;;;;;;;19.42;53.65;96584.56;5012099;28;20304;-25
2024/03/01 09:12:01;;;;;;;16.27;13.57;;;;;;;19.41;53.18;96578.59;5010933;28;20250;-25
2024/03/01 09:14:31;;;;;;;20.00;16.40;;;;;;;19.37;50.62;96588.69;5007063;28;20202;-25
2024/03/01 09:16:59;;;;;;;28.03;22.13;;;;;;;19.33;45.30;96587.75;5013822;28;20229;-25
2024/03/01 09:19:29;;;;;;;29.80;24.57;;;;;;;19.25;43.75;96593.47;5013318;28;20265;-25
2024/03/01 09:21:56;;;;;;;31.17;25.47;;;;;;;19.14;43.12;96594.88;5013647;28;20624;-25
2024/03/01 09:24:24;;;;;;;30.63;25.87;;;;;;;19.03;42.98;96592.09;5009555;28;20202;-25
2024/03/01 09:26:52;;;;;;;36.07;27.60;;;;;;;18.90;42.45;96597.72;5010768;28;20768;-26
2024/03/01 09:29:33;;;;;;;39.63;28.70;;;;;;;18.79;42.72;96582.97;5005507;28;20230;-26
2024/03/01 09:31:59;;;;;;;32.80;27.07;;;;;;;18.69;42.37;96581.03;5006861;28;20639;-28
2024/03/01 09:34:30;;;;;;;34.47;28.83;;;;;;;18.50;42.92;96572.06;5003968;28;20757;-25
2024/03/01 09:36:57;;;;;;;32.90;27.13;;;;;;;18.44;43.24;96588.88;5010421;28;20205;-25
2024/03/01 09:39:23;;;;;;;34.60;27.70;;;;;;;18.32;43.69;96593.59;5024708;28;20226;-26
2024/03/01 09:42:14;;;;;;;34.00;28.10;;;;;;;18.23;43.69;96585.72;5022295;28;20222;-25
2024/03/01 09:44:59;;;;;;;35.13;29.27;;;;;;;18.08;43.72;96583.59;5010445;28;20260;-25
2024/03/01 09:47:38;;;;;;;36.73;30.27;;;;;;;18.01;44.19;96586.78;5009644;28;20202;-25
2024/03/01 09:50:16;;;;;;;35.60;28.97;;;;;;;17.93;44.71;96593.31;5013403;28;20222;-26
2024/03/01 09:52:57;;;;;;;38.67;29.43;;;;;;;17.82;44.50;96590.47;5010164;28;20703;-25
2024/03/01 09:55:47;;;;;;;43.87;30.90;;;;;;;17.75;44.14;96585.19;5010865;28;20210;-28
2024/03/01 09:58:26;;;;;;;38.73;30.37;;;;;;;17.66;44.85;96590.00;5011352;28;20207;-25
2024/03/01 10:01:02;;;;;;;42.10;29.77;;;;;;;17.63;45.44;96587.34;5012133;28;20210;-26
2024/03/01 10:03:40;;;;;;;37.30;28.80;;;;;;;17.60;45.75;96595.75;5018094;28;20202;-25
2024/03/01 10:06:20;;;;;;;34.13;27.30;;;;;;;17.62;46.13;96599.19;5013290;28;20202;-26
2024/03/01 10:08:58;;;;;;;32.57;25.83;;;;;;;17.64;46.27;96594.16;5013447;28;20256;-26
2024/03/01 10:11:39;;;;;;;39.70;29.20;;;;;;;17.68;46.00;96591.75;5013046;28;20249;-33
2024/03/01 10:14:32;;;;;;;33.60;27.03;;;;;;;17.74;46.25;96589.38;5007065;28;20209;-26
2024/03/01 10:17:02;;;;;;;36.03;27.40;;;;;;;17.77;46.62;96598.78;4994532;28;20241;-26
2024/03/01 10:19:52;;;;;;;33.17;26.83;;;;;;;17.86;45.90;96604.16;5011324;28;20262;-25
2024/03/01 10:22:31;;;;;;;36.57;28.67;;;;;;;17.93;46.10;96608.56;5011771;28;20260;-25
2024/03/01 10:25:19;;;;;;;35.17;27.93;;;;;;;17.99;45.89;96603.66;5005601;28;20213;-25
2024/03/01 10:27:49;;;;;;;36.80;28.07;;;;;;;18.04;46.00;96600.47;5013056;28;20198;-26
2024/03/01 10:30:24;;;;;;;38.10;28.90;;;;;;;18.10;45.63;96603.19;5010369;28;20292;-28
2024/03/01 10:33:03;;;;;;;37.60;28.77;;;;;;;18.13;45.54;96605.81;5011250;28;20222;-25
2024/03/01 10:35:51;;;;;;;37.87;29.47;;;;;;;18.20;45.93;96604.28;5009967;28;20198;-26
2024/03/01 10:38:40;;;;;;;35.80;28.13;;;;;;;18.24;46.05;96611.19;5012760;28;20202;-26
2024/03/01 10:41:21;;;;;;;36.10;27.47;;;;;;;18.23;45.81;96600.13;5006477;28;20215;-29
2024/03/01 10:44:07;;;;;;;32.93;26.20;;;;;;;18.30;46.50;96595.22;5010515;28;20268;-25
2024/03/01 10:46:43;;;;;;;35.90;27.30;;;;;;;18.36;46.12;96595.38;5011713;28;20206;-25
2024/03/01 10:49:27;;;;;;;31.03;25.20;;;;;;;18.40;46.48;96597.22;5005315;28;20230;-25
2024/03/01 10:52:00;;;;;;;31.50;25.27;;;;;;;18.44;46.31;96593.94;5010487;28;20222;-25
2024/03/01 10:54:29;;;;;;;30.30;23.93;;;;;;;18.47;46.49;96586.41;5011300;28;20202;-25
2024/03/01 10:56:56;;;;;;;33.13;25.23;;;;;;;18.47;46.74;96579.59;5009373;28;20201;-25
2024/03/01 10:59:36;;;;;;;30.67;23.27;;;;;;;18.48;46.35;96567.75;5011701;28;20317;-25
2024/03/01 11:02:18;;;;;;;30.10;23.90;;;;;;;18.55;46.88;96582.34;5004170;28;20202;-25
2024/03/01 11:05:24;;;;;;;28.97;23.03;;;;;;;18.59;46.59;96574.84;5012499;28;20229;-25
2024/03/01 11:08:13;;;;;;;26.97;23.00;;;;;;;18.62;46.76;96564.72;4909328;29;20299;-26
2024/03/01 11:10:53;;;;;;;25.27;20.77;;;;;;;18.60;46.55;96565.53;4932893;29;20227;-25
2024/03/01 11:13:20;;;;;;;26.77;21.03;;;;;;;18.55;46.57;96562.88;4989370;28;20680;-25
2024/03/01 11:15:47;;;;;;;26.07;20.97;;;;;;;18.54;46.77;96565.38;5013367;28;20232;-25
2024/03/01 11:18:17;;;;;;;24.97;19.90;;;;;;;18.51;46.74;96563.63;5018760;28;20298;-27
2024/03/01 11:20:49;;;;;;;26.13;21.53;;;;;;;18.51;46.98;96557.66;5029584;28;20261;-27
2024/03/01 11:23:20;;;;;;;28.47;21.90;;;;;;;18.49;47.14;96555.06;5006605;28;20585;-25
2024/03/01 11:25:53;;;;;;;25.73;20.73;;;;;;;18.50;46.90;96551.69;5030009;28;20206;-25
2024/03/01 11:28:23;;;;;;;27.17;21.83;;;;;;;18.51;46.88;96557.66;5010495;28;20209;-25
2024/03/01 11:30:51;;;;;;;24.87;20.07;;;;;;;18.50;47.26;96553.41;5015860;28;20739;-25
2024/03/01 11:33:18;;;;;;;28.37;23.07;;;;;;;18.51;47.17;96560.22;5019101;28;20206;-25
2024/03/01 11:35:46;;;;;;;27.63;20.90;;;;;;;18.53;47.44;96546.69;5024025;28;20587;-25